Time;durP1;ratioP1;P1;durP2;ratioP2;P2;SDS_P1;SDS_P2;PMS_P1;PMS_P2;Temp;Humidity;BMP_temperature;BMP_pressure;BME280_temperature;BME280_humidity;BME280_pressure;Samples;Min_cycle;Max_cycle;Signal;HPM_P1;HPM_P2
2023/09/19 00:00:23;;;;;;;14.82;3.30;;;;;;;13.14;100.00;100776.09;5068089;28;20110;-76
2023/09/19 00:02:59;;;;;;;16.02;3.40;;;;;;;13.08;100.00;100771.09;5065846;28;20040;-76
2023/09/19 00:05:27;;;;;;;18.67;4.40;;;;;;;13.07;100.00;100782.44;5070503;28;20032;-76
2023/09/19 00:07:58;;;;;;;18.52;3.50;;;;;;;13.01;100.00;100775.66;5065634;28;20028;-76
2023/09/19 00:10:26;;;;;;;13.20;3.92;;;;;;;12.98;100.00;100780.16;5062909;28;20029;-76
2023/09/19 00:12:55;;;;;;;12.90;3.45;;;;;;;12.93;100.00;100779.47;5069365;28;20032;-76
2023/09/19 00:15:22;;;;;;;16.95;3.67;;;;;;;12.92;100.00;100788.22;5069440;28;20032;-76
2023/09/19 00:17:47;;;;;;;15.32;3.70;;;;;;;12.93;100.00;100788.16;5066500;28;20111;-76
2023/09/19 00:20:17;;;;;;;18.60;3.20;;;;;;;12.89;100.00;100784.81;5069842;28;20057;-76
2023/09/19 00:22:42;;;;;;;19.55;3.75;;;;;;;12.79;100.00;100779.94;5066038;28;20159;-76
2023/09/19 00:25:12;;;;;;;14.50;3.75;;;;;;;12.87;100.00;100793.59;5058656;28;20478;-76
2023/09/19 00:27:41;;;;;;;13.35;3.47;;;;;;;12.81;100.00;100794.66;5071878;28;20038;-76
2023/09/19 00:30:16;;;;;;;12.68;3.50;;;;;;;12.83;100.00;100802.47;5065448;28;20120;-76
2023/09/19 00:32:42;;;;;;;14.40;3.35;;;;;;;12.77;100.00;100803.53;5073322;28;20487;-76
2023/09/19 00:35:10;;;;;;;21.20;3.88;;;;;;;12.82;100.00;100819.09;5070421;28;20111;-77
2023/09/19 00:37:36;;;;;;;18.48;3.70;;;;;;;12.78;100.00;100815.69;5072380;28;20510;-77
2023/09/19 00:40:05;;;;;;;9.90;3.25;;;;;;;12.72;100.00;100818.53;5065587;28;20035;-77
2023/09/19 00:42:31;;;;;;;15.48;3.25;;;;;;;12.69;100.00;100816.00;5066043;28;20105;-77
2023/09/19 00:44:57;;;;;;;11.68;3.70;;;;;;;12.69;100.00;100823.84;5067478;28;20115;-77
2023/09/19 00:47:22;;;;;;;13.45;3.75;;;;;;;12.66;100.00;100818.72;5071467;28;20107;-77
2023/09/19 00:49:52;;;;;;;13.20;3.40;;;;;;;12.63;100.00;100826.66;5071681;28;20076;-77
2023/09/19 00:52:19;;;;;;;13.85;3.30;;;;;;;12.60;100.00;100826.75;5062497;28;20499;-77
2023/09/19 00:54:46;;;;;;;11.23;3.38;;;;;;;12.61;100.00;100837.16;5063398;28;20029;-77
2023/09/19 00:57:12;;;;;;;15.15;4.05;;;;;;;12.55;100.00;100832.13;5066155;28;20480;-77
2023/09/19 00:59:37;;;;;;;12.55;3.10;;;;;;;12.52;100.00;100833.97;5067000;28;20037;-77
2023/09/19 01:02:03;;;;;;;16.83;3.63;;;;;;;12.53;100.00;100847.03;5067777;28;20024;-77
2023/09/19 01:04:29;;;;;;;11.73;3.20;;;;;;;12.49;100.00;100844.53;5068852;28;20020;-77
2023/09/19 01:06:55;;;;;;;15.27;2.88;;;;;;;12.49;100.00;100842.81;5067528;28;20029;-77
2023/09/19 01:09:21;;;;;;;13.70;3.55;;;;;;;12.47;100.00;100849.81;5073346;28;20088;-77
2023/09/19 01:11:51;;;;;;;16.27;2.90;;;;;;;12.45;100.00;100845.53;5069438;28;20024;-77
2023/09/19 01:14:42;;;;;;;13.43;3.20;;;;;;;12.50;100.00;100848.88;5070758;28;20017;-76
2023/09/19 01:17:17;;;;;;;18.63;3.85;;;;;;;12.47;100.00;100859.44;5072829;28;20035;-77
2023/09/19 01:19:56;;;;;;;11.57;3.17;;;;;;;12.43;100.00;100839.53;5062271;28;20029;-76
2023/09/19 01:22:32;;;;;;;11.13;3.42;;;;;;;12.41;100.00;100848.25;5056532;28;20033;-76
2023/09/19 01:25:36;;;;;;;15.55;3.40;;;;;;;12.46;100.00;100860.31;5065306;28;20056;-77
2023/09/19 01:28:07;;;;;;;;;;;;;;;12.41;100.00;100863.09;5041077;28;20040;-77
2023/09/19 01:30:39;;;;;;;12.75;2.90;;;;;;;12.38;100.00;100871.03;5067991;28;19939;-77
2023/09/19 01:33:06;;;;;;;12.80;3.35;;;;;;;12.36;100.00;100872.81;5070219;28;20024;-77
2023/09/19 01:35:34;;;;;;;13.95;4.28;;;;;;;12.36;100.00;100872.81;5067272;28;20035;-77
2023/09/19 01:37:59;;;;;;;10.43;4.03;;;;;;;12.35;100.00;100874.56;5070018;28;20021;-77
2023/09/19 01:40:25;;;;;;;9.60;2.97;;;;;;;12.36;100.00;100876.31;5068335;28;20032;-77
2023/09/19 01:43:05;;;;;;;10.98;2.80;;;;;;;12.37;100.00;100877.16;5065055;28;20122;-77
2023/09/19 01:45:46;;;;;;;12.48;3.40;;;;;;;12.34;100.00;100875.50;5061637;28;20119;-77
2023/09/19 01:48:31;;;;;;;14.23;3.10;;;;;;;12.35;100.00;100887.66;5070494;28;20384;-77
2023/09/19 01:51:02;;;;;;;10.10;3.25;;;;;;;12.36;100.00;100885.88;5062133;28;20020;-77
2023/09/19 01:53:35;;;;;;;14.02;3.10;;;;;;;12.33;100.00;100880.78;5059734;28;20036;-77
2023/09/19 01:56:02;;;;;;;12.60;3.15;;;;;;;12.33;100.00;100875.56;5057905;28;20086;-77
2023/09/19 01:58:34;;;;;;;10.68;2.35;;;;;;;12.31;100.00;100879.97;5057966;28;20045;-77
2023/09/19 02:01:01;;;;;;;10.90;2.80;;;;;;;12.28;100.00;100875.66;5067873;28;20372;-77
2023/09/19 02:03:28;;;;;;;14.60;3.55;;;;;;;12.28;100.00;100873.06;5064714;28;20025;-77
2023/09/19 02:05:54;;;;;;;12.13;3.17;;;;;;;12.31;100.00;100879.97;5065424;28;20025;-77
2023/09/19 02:08:23;;;;;;;12.25;3.03;;;;;;;12.27;100.00;100870.50;5063337;28;20040;-77
2023/09/19 02:10:49;;;;;;;8.85;2.65;;;;;;;12.26;100.00;100871.38;5062367;28;20104;-77
2023/09/19 02:13:19;;;;;;;13.82;3.33;;;;;;;12.24;100.00;100876.66;5064153;28;20052;-76
2023/09/19 02:15:46;;;;;;;12.50;3.65;;;;;;;12.18;100.00;100876.84;5069197;28;20021;-77
2023/09/19 02:18:14;;;;;;;12.48;2.63;;;;;;;12.15;100.00;100867.34;5067532;28;20443;-77
2023/09/19 02:20:40;;;;;;;14.43;2.78;;;;;;;12.18;100.00;100882.06;5064348;28;20028;-77
2023/09/19 02:23:06;;;;;;;10.13;2.45;;;;;;;12.06;100.00;100853.69;5057544;28;20021;-76
2023/09/19 02:25:32;;;;;;;13.40;3.10;;;;;;;12.07;100.00;100874.56;5061238;28;20020;-76
2023/09/19 02:27:58;;;;;;;9.27;2.60;;;;;;;12.02;100.00;100872.97;5064857;28;20361;-77
2023/09/19 02:30:25;;;;;;;12.35;2.53;;;;;;;12.01;100.00;100879.09;5068383;28;20055;-77
2023/09/19 02:32:51;;;;;;;10.90;2.95;;;;;;;12.02;100.00;100883.41;5071634;28;20021;-77
2023/09/19 02:35:19;;;;;;;12.45;3.15;;;;;;;11.92;100.00;100888.06;5065098;28;20025;-77
2023/09/19 02:37:45;;;;;;;13.57;3.20;;;;;;;11.95;100.00;100896.66;5068411;28;20017;-77
2023/09/19 02:40:18;;;;;;;11.23;3.00;;;;;;;11.93;100.00;100893.25;5059775;28;20025;-77
2023/09/19 02:42:48;;;;;;;;;;;;;;;11.93;100.00;100892.38;5064904;28;20045;-77
2023/09/19 02:45:14;;;;;;;10.73;2.65;;;;;;;11.88;100.00;100889.03;5069835;28;19917;-77
2023/09/19 02:47:43;;;;;;;12.35;2.95;;;;;;;11.84;100.00;100888.28;5070966;28;20047;-77
2023/09/19 02:50:11;;;;;;;9.63;2.90;;;;;;;11.82;100.00;100878.72;5066512;28;20047;-77
2023/09/19 02:52:37;;;;;;;12.15;2.78;;;;;;;11.83;100.00;100890.88;5062720;28;20020;-76
2023/09/19 02:55:04;;;;;;;8.38;2.85;;;;;;;11.79;100.00;100886.66;5061789;28;20477;-77
2023/09/19 02:57:31;;;;;;;13.02;2.70;;;;;;;11.77;100.00;100888.44;5066709;28;20024;-77
2023/09/19 02:59:56;;;;;;;10.48;2.78;;;;;;;11.76;100.00;100890.19;5070865;28;20081;-77
2023/09/19 03:02:24;;;;;;;9.32;2.40;;;;;;;11.72;100.00;100888.56;5072251;28;20029;-77
2023/09/19 03:04:51;;;;;;;9.30;2.65;;;;;;;11.71;100.00;100898.16;5065065;28;20020;-77
2023/09/19 03:07:17;;;;;;;8.43;2.58;;;;;;;11.72;100.00;100899.03;5073595;28;20376;-77
2023/09/19 03:09:43;;;;;;;11.88;2.70;;;;;;;11.70;100.00;100904.28;5073353;28;20028;-77
2023/09/19 03:12:08;;;;;;;14.05;3.13;;;;;;;11.71;100.00;100897.31;5072530;28;20387;-76
2023/09/19 03:14:35;;;;;;;14.32;2.55;;;;;;;11.72;100.00;100904.25;5067649;28;20040;-77
2023/09/19 03:17:00;;;;;;;9.68;2.58;;;;;;;11.67;100.00;100899.16;5067785;28;20067;-77
2023/09/19 03:19:26;;;;;;;9.80;2.67;;;;;;;11.64;100.00;100895.75;5074552;28;20056;-77
2023/09/19 03:21:52;;;;;;;7.60;2.10;;;;;;;11.66;100.00;100896.56;5065655;28;20021;-77
2023/09/19 03:24:17;;;;;;;11.93;2.78;;;;;;;11.68;100.00;100894.78;5070998;28;20111;-77
2023/09/19 03:26:42;;;;;;;7.72;2.75;;;;;;;11.64;100.00;100888.78;5072932;28;20365;-77
2023/09/19 03:29:09;;;;;;;9.63;2.70;;;;;;;11.56;100.00;100882.06;5071958;28;20029;-77
2023/09/19 03:31:36;;;;;;;7.93;2.60;;;;;;;11.61;100.00;100888.03;5068851;28;20060;-77
2023/09/19 03:34:03;;;;;;;13.50;3.22;;;;;;;11.65;100.00;100897.47;5057951;28;20032;-77
2023/09/19 03:36:29;;;;;;;19.30;2.72;;;;;;;11.50;100.00;100872.63;5060461;28;20029;-77
2023/09/19 03:38:55;;;;;;;11.57;2.65;;;;;;;11.68;100.00;100895.63;5066978;28;20531;-77
2023/09/19 03:41:20;;;;;;;11.35;2.40;;;;;;;11.67;100.00;100890.44;5070803;28;20029;-77
2023/09/19 03:43:45;;;;;;;9.95;2.53;;;;;;;11.62;100.00;100889.72;5062393;28;20051;-77
2023/09/19 03:46:12;;;;;;;10.30;2.88;;;;;;;11.67;100.00;100891.31;5058182;28;20029;-77
2023/09/19 03:48:37;;;;;;;9.13;2.55;;;;;;;11.67;100.00;100887.81;5058223;28;20048;-76
2023/09/19 03:51:03;;;;;;;10.35;2.58;;;;;;;11.69;100.00;100888.66;5066573;28;20027;-77
2023/09/19 03:53:28;;;;;;;7.18;2.45;;;;;;;11.69;100.00;100886.91;5057780;28;20029;-77
2023/09/19 03:55:54;;;;;;;11.88;2.63;;;;;;;11.71;100.00;100881.66;5066454;28;20103;-77
2023/09/19 03:58:20;;;;;;;13.00;2.90;;;;;;;11.78;100.00;100883.19;5072817;28;20052;-77
2023/09/19 04:00:45;;;;;;;13.27;3.03;;;;;;;11.74;100.00;100881.56;5066068;28;20113;-76
2023/09/19 04:03:19;;;;;;;18.10;2.78;;;;;;;11.75;100.00;100878.03;5072388;28;20032;-77
2023/09/19 04:05:44;;;;;;;10.88;2.97;;;;;;;11.72;100.00;100878.13;5069191;28;20020;-77
2023/09/19 04:08:10;;;;;;;14.18;2.63;;;;;;;11.76;100.00;100877.13;5072113;28;20020;-76
2023/09/19 04:10:35;;;;;;;11.80;2.63;;;;;;;11.75;100.00;100879.81;5061841;28;20479;-77
2023/09/19 04:13:00;;;;;;;9.50;2.70;;;;;;;11.84;100.00;100884.78;5062255;28;20104;-77
2023/09/19 04:15:26;;;;;;;15.77;2.75;;;;;;;11.82;100.00;100883.94;5062945;28;20082;-76
2023/09/19 04:17:51;;;;;;;14.40;2.45;;;;;;;11.82;100.00;100884.81;5074067;28;20384;-76
2023/09/19 04:20:19;;;;;;;13.32;2.80;;;;;;;11.75;100.00;100875.44;5071158;28;20029;-77
2023/09/19 04:22:45;;;;;;;13.15;2.72;;;;;;;11.81;100.00;100890.94;5048228;28;20021;-77
2023/09/19 04:25:10;;;;;;;9.40;2.60;;;;;;;11.83;100.00;100903.94;5054433;28;20094;-77
2023/09/19 04:27:35;;;;;;;13.82;3.03;;;;;;;11.82;100.00;100910.06;5066712;28;20020;-77
2023/09/19 04:30:09;;;;;;;10.90;2.83;;;;;;;11.81;100.00;100904.00;5067814;28;20034;-77
2023/09/19 04:32:36;;;;;;;14.60;2.88;;;;;;;11.80;100.00;100904.88;5070562;28;20036;-78
2023/09/19 04:35:05;;;;;;;12.80;2.85;;;;;;;11.84;100.00;100911.78;5073750;28;20037;-77
2023/09/19 04:37:30;;;;;;;11.57;2.53;;;;;;;11.84;100.00;100918.75;5058122;28;20024;-77
2023/09/19 04:39:56;;;;;;;13.50;3.40;;;;;;;11.96;100.00;100936.69;5064223;28;20043;-77
2023/09/19 04:42:25;;;;;;;13.02;2.83;;;;;;;11.99;100.00;100934.00;5056279;28;20465;-77
2023/09/19 04:44:53;;;;;;;12.75;2.90;;;;;;;12.11;100.00;100943.25;5072061;28;20104;-77
2023/09/19 04:47:19;;;;;;;12.63;2.72;;;;;;;12.19;100.00;100943.88;5067849;28;20052;-77
2023/09/19 04:49:44;;;;;;;13.43;2.47;;;;;;;12.16;100.00;100947.47;5067822;28;20526;-77
2023/09/19 04:52:09;;;;;;;11.75;2.90;;;;;;;12.20;100.00;100953.47;5065231;28;20036;-77
2023/09/19 04:54:34;;;;;;;12.05;3.05;;;;;;;12.18;100.00;100950.88;5063416;28;20021;-77
2023/09/19 04:57:02;;;;;;;13.38;2.90;;;;;;;12.21;100.00;100962.16;5060338;28;20024;-77
2023/09/19 04:59:31;;;;;;;11.70;3.15;;;;;;;12.21;100.00;100968.25;5064799;28;20024;-77
2023/09/19 05:01:56;;;;;;;11.68;2.80;;;;;;;12.17;100.00;100953.56;5065336;28;20059;-77
2023/09/19 05:04:21;;;;;;;16.25;3.05;;;;;;;12.16;100.00;100957.03;5070289;28;20099;-77
2023/09/19 05:06:47;;;;;;;13.55;2.85;;;;;;;12.11;100.00;100957.19;5060063;28;20036;-77
2023/09/19 05:09:13;;;;;;;9.57;2.80;;;;;;;12.08;100.00;100959.88;5071428;28;20384;-77
2023/09/19 05:11:38;;;;;;;8.65;2.83;;;;;;;12.10;100.00;100973.78;5064737;28;20032;-77
2023/09/19 05:14:04;;;;;;;12.45;2.55;;;;;;;12.04;100.00;100965.25;5073532;28;20020;-77
2023/09/19 05:16:31;;;;;;;12.35;2.90;;;;;;;12.07;100.00;100965.16;5068157;28;20438;-77
2023/09/19 05:18:59;;;;;;;14.27;2.53;;;;;;;12.04;100.00;100954.78;5065535;28;20021;-77
2023/09/19 05:21:28;;;;;;;11.27;3.13;;;;;;;12.09;100.00;100961.59;5069152;28;20025;-76
2023/09/19 05:23:54;;;;;;;12.98;3.17;;;;;;;12.16;100.00;100975.34;5069432;28;20040;-76
2023/09/19 05:26:20;;;;;;;11.48;3.40;;;;;;;12.12;100.00;100968.50;5064666;28;20024;-76
2023/09/19 05:28:47;;;;;;;12.48;3.05;;;;;;;12.01;100.00;100947.03;5065145;28;20029;-76
2023/09/19 05:31:14;;;;;;;14.27;3.10;;;;;;;12.09;100.00;100960.72;5059112;28;20032;-76
2023/09/19 05:33:39;;;;;;;10.13;2.70;;;;;;;12.09;100.00;100953.75;5070397;28;20024;-76
2023/09/19 05:36:05;;;;;;;13.88;2.97;;;;;;;12.12;100.00;100971.94;5067621;28;20028;-77
2023/09/19 05:38:30;;;;;;;13.05;3.20;;;;;;;12.18;100.00;100977.00;5068652;28;20047;-77
2023/09/19 05:40:56;;;;;;;11.88;2.40;;;;;;;12.21;100.00;100981.31;5071343;28;20020;-77
2023/09/19 05:43:21;;;;;;;10.20;2.65;;;;;;;12.18;100.00;100979.63;5062378;28;20033;-77
2023/09/19 05:45:47;;;;;;;11.13;2.90;;;;;;;12.24;100.00;100985.59;5070071;28;20369;-77
2023/09/19 05:48:15;;;;;;;10.88;2.97;;;;;;;12.26;100.00;100979.44;5066642;28;20115;-77
2023/09/19 05:50:40;;;;;;;10.95;2.95;;;;;;;12.24;100.00;100969.91;5058952;28;20031;-77
2023/09/19 05:53:06;;;;;;;11.90;2.58;;;;;;;12.27;100.00;100968.06;5065307;28;20032;-77
2023/09/19 05:55:32;;;;;;;14.40;3.05;;;;;;;12.25;100.00;100962.00;5062914;28;20029;-77
2023/09/19 05:57:58;;;;;;;13.48;2.60;;;;;;;12.34;100.00;100968.75;5066044;28;20048;-76
2023/09/19 06:00:27;;;;;;;14.70;2.95;;;;;;;12.31;100.00;100956.63;5066359;28;20116;-77
2023/09/19 06:02:53;;;;;;;13.80;2.90;;;;;;;12.37;100.00;100966.91;5056611;28;20016;-77
2023/09/19 06:05:20;;;;;;;12.35;3.25;;;;;;;12.37;100.00;100966.03;5059689;28;20036;-77
2023/09/19 06:07:46;;;;;;;10.63;2.53;;;;;;;12.45;100.00;100974.50;5062374;28;20399;-77
2023/09/19 06:10:12;;;;;;;13.80;2.92;;;;;;;12.40;100.00;100960.72;5059241;28;20031;-77
2023/09/19 06:12:43;;;;;;;10.05;3.08;;;;;;;12.50;100.00;100977.88;5066646;28;20037;-77
2023/09/19 06:15:14;;;;;;;14.82;3.70;;;;;;;12.49;100.00;100960.47;5071496;28;20028;-77
2023/09/19 06:17:41;;;;;;;9.02;2.67;;;;;;;12.54;100.00;100968.16;5064337;28;20024;-77
2023/09/19 06:20:13;;;;;;;16.90;2.90;;;;;;;12.60;100.00;100974.06;5066744;28;20021;-77
2023/09/19 06:22:41;;;;;;;11.90;3.13;;;;;;;12.56;100.00;100972.47;5065117;28;20067;-76
2023/09/19 06:25:07;;;;;;;11.93;3.10;;;;;;;12.70;100.00;100989.50;5068933;28;20025;-77
2023/09/19 06:27:32;;;;;;;11.75;3.28;;;;;;;12.65;100.00;100969.56;5067241;28;20021;-76
2023/09/19 06:29:57;;;;;;;9.65;2.95;;;;;;;12.74;100.00;100989.34;5070872;28;20441;-77
2023/09/19 06:32:29;;;;;;;15.23;3.10;;;;;;;12.73;100.00;100990.25;5068213;28;20036;-76
2023/09/19 06:34:54;;;;;;;14.68;3.20;;;;;;;12.72;100.00;100983.31;5066012;28;20017;-76
2023/09/19 06:37:20;;;;;;;13.10;3.00;;;;;;;12.82;100.00;101003.06;5069347;28;20081;-76
2023/09/19 06:39:47;;;;;;;8.38;2.30;;;;;;;12.85;100.00;100992.50;5059450;28;20029;-76
2023/09/19 06:42:13;;;;;;;10.38;3.13;;;;;;;12.89;100.00;101003.75;5063112;28;20031;-76
2023/09/19 06:44:38;;;;;;;21.55;3.00;;;;;;;12.92;100.00;101010.66;5070609;28;20021;-76
2023/09/19 06:47:04;;;;;;;11.98;3.47;;;;;;;12.95;100.00;101006.16;5071402;28;20020;-76
2023/09/19 06:49:30;;;;;;;14.20;3.25;;;;;;;12.99;100.00;101004.31;5059139;28;20045;-76
2023/09/19 06:51:57;;;;;;;12.45;3.33;;;;;;;12.99;100.00;101001.69;5061882;28;20082;-76
2023/09/19 06:54:22;;;;;;;9.43;2.53;;;;;;;13.04;100.00;101010.25;5068993;28;20025;-77
2023/09/19 06:56:48;;;;;;;12.70;3.22;;;;;;;13.09;100.00;101014.44;5055701;28;20031;-77
2023/09/19 06:59:14;;;;;;;16.48;3.10;;;;;;;13.10;100.00;100999.59;5067488;28;20020;-76
2023/09/19 07:01:41;;;;;;;12.88;3.25;;;;;;;13.25;100.00;101009.63;5065766;28;20024;-76
2023/09/19 07:04:06;;;;;;;12.43;2.80;;;;;;;13.33;100.00;101007.59;5061974;28;20036;-75
2023/09/19 07:06:32;;;;;;;7.93;2.47;;;;;;;13.38;100.00;100998.75;5057469;28;20021;-76
2023/09/19 07:08:57;;;;;;;11.45;3.08;;;;;;;13.47;100.00;101001.94;5057620;28;20033;-77
2023/09/19 07:11:23;;;;;;;10.35;2.88;;;;;;;13.57;100.00;101019.06;5063962;28;20141;-76
2023/09/19 07:13:48;;;;;;;19.50;3.45;;;;;;;13.58;100.00;101002.41;5068958;28;20047;-76
2023/09/19 07:16:27;;;;;;;16.75;4.28;;;;;;;13.71;100.00;101010.72;5065334;28;20021;-77
2023/09/19 07:18:52;;;;;;;12.35;2.80;;;;;;;13.85;100.00;101030.38;5065709;28;20078;-77
2023/09/19 07:21:17;;;;;;;12.32;3.20;;;;;;;13.90;100.00;101020.59;5071678;28;20036;-76
2023/09/19 07:23:43;;;;;;;12.27;3.05;;;;;;;14.00;100.00;101016.75;5066939;28;20029;-76
2023/09/19 07:26:08;;;;;;;12.70;3.33;;;;;;;13.97;100.00;101015.06;5060557;28;20119;-76
2023/09/19 07:28:35;;;;;;;15.52;3.22;;;;;;;13.98;100.00;101023.78;5059886;28;20081;-76
2023/09/19 07:31:03;;;;;;;11.35;2.88;;;;;;;13.93;100.00;101013.47;5056689;28;20176;-76
2023/09/19 07:33:28;;;;;;;12.20;3.10;;;;;;;13.88;100.00;101004.06;5052335;28;20483;-75
2023/09/19 07:35:54;;;;;;;13.82;3.17;;;;;;;13.87;100.00;101004.97;5064823;28;20021;-75
2023/09/19 07:38:19;;;;;;;15.65;2.83;;;;;;;14.00;100.00;101012.34;5061619;28;20041;-75
2023/09/19 07:40:44;;;;;;;10.40;3.42;;;;;;;14.01;100.00;101008.81;5064575;28;20130;-75
2023/09/19 07:43:10;;;;;;;9.93;2.55;;;;;;;14.14;100.00;101011.84;5058579;28;20510;-75
2023/09/19 07:45:36;;;;;;;9.73;3.05;;;;;;;14.16;100.00;101001.31;5067017;28;20033;-75
2023/09/19 07:48:06;;;;;;;10.63;3.35;;;;;;;14.29;100.00;101020.97;5068680;28;20020;-75
2023/09/19 07:50:34;;;;;;;13.75;3.38;;;;;;;14.33;100.00;101008.59;5062869;28;20358;-75
2023/09/19 07:52:59;;;;;;;12.88;2.92;;;;;;;14.38;100.00;101014.50;5064107;28;20028;-75
2023/09/19 07:55:25;;;;;;;9.50;2.80;;;;;;;14.40;100.00;101012.69;5069551;28;20029;-75
2023/09/19 07:57:52;;;;;;;11.73;2.78;;;;;;;14.45;100.00;101011.63;5066537;28;20384;-75
2023/09/19 08:00:17;;;;;;;16.70;3.47;;;;;;;14.55;100.00;101016.53;5066053;28;20055;-75
2023/09/19 08:02:43;;;;;;;15.10;3.20;;;;;;;14.60;100.00;101023.31;5071729;28;20064;-75
2023/09/19 08:05:10;;;;;;;11.82;2.88;;;;;;;14.71;100.00;101018.56;5074766;28;20028;-75
2023/09/19 08:07:37;;;;;;;11.48;3.28;;;;;;;14.79;100.00;101020.88;5066763;28;20063;-75
2023/09/19 08:10:04;;;;;;;13.55;2.95;;;;;;;14.87;100.00;101025.81;5071040;28;20483;-74
2023/09/19 08:12:30;;;;;;;15.45;3.13;;;;;;;15.06;100.00;101026.81;5061563;28;20020;-75
2023/09/19 08:14:55;;;;;;;11.95;2.65;;;;;;;15.08;100.00;101022.38;5066439;28;20070;-75
2023/09/19 08:17:22;;;;;;;11.13;2.75;;;;;;;15.17;100.00;101022.03;5065941;28;20473;-75
2023/09/19 08:19:49;;;;;;;13.07;2.95;;;;;;;15.24;100.00;101025.25;5069167;28;20037;-75
2023/09/19 08:22:17;;;;;;;8.38;2.70;;;;;;;15.14;100.00;100998.50;5053804;28;20021;-75
2023/09/19 08:24:42;;;;;;;15.30;3.22;;;;;;;15.28;100.00;101021.59;5066696;28;20021;-75
2023/09/19 08:27:10;;;;;;;11.60;2.97;;;;;;;15.29;100.00;101019.81;5055729;28;20028;-75
2023/09/19 08:29:35;;;;;;;17.25;2.75;;;;;;;15.34;100.00;101018.72;5072235;28;20024;-75
2023/09/19 08:32:00;;;;;;;13.52;2.70;;;;;;;15.40;100.00;101002.72;5073293;28;20456;-75
2023/09/19 08:34:26;;;;;;;11.73;2.80;;;;;;;15.64;100.00;101021.00;5061028;28;20028;-75
2023/09/19 08:36:56;;;;;;;10.13;2.85;;;;;;;15.64;100.00;101023.63;5061283;28;20032;-75
2023/09/19 08:39:22;;;;;;;11.07;2.72;;;;;;;15.47;100.00;101016.44;5069407;28;20025;-75
2023/09/19 08:41:47;;;;;;;9.98;2.78;;;;;;;15.55;100.00;101024.00;5067719;28;20548;-75
2023/09/19 08:44:13;;;;;;;11.73;3.13;;;;;;;15.69;100.00;101021.69;5060480;28;20025;-75
2023/09/19 08:46:41;;;;;;;9.25;2.72;;;;;;;15.67;100.00;101019.13;5062590;28;20104;-75
2023/09/19 08:49:48;;;;;;;12.25;3.25;;;;;;;15.83;100.00;101023.75;5064697;28;20500;-75
2023/09/19 08:52:22;;;;;;;12.15;3.30;;;;;;;15.68;100.00;101005.06;5057397;28;20112;-75
2023/09/19 08:54:51;;;;;;;13.30;3.33;;;;;;;15.64;100.00;101023.63;5059963;28;20028;-75
2023/09/19 08:57:21;;;;;;;15.23;2.80;;;;;;;15.81;100.00;101017.69;5061143;28;20029;-75
2023/09/19 08:59:48;;;;;;;10.38;2.53;;;;;;;16.02;100.00;101023.78;5053541;28;20028;-76
2023/09/19 09:02:15;;;;;;;13.88;3.22;;;;;;;16.01;100.00;101025.56;5066213;28;20016;-75
2023/09/19 09:04:42;;;;;;;10.52;3.05;;;;;;;15.97;100.00;101024.00;5065520;28;20079;-75
2023/09/19 09:07:19;;;;;;;12.57;3.22;;;;;;;15.89;100.00;101008.56;5061139;28;20024;-75
2023/09/19 09:09:44;;;;;;;9.52;3.63;;;;;;;15.96;100.00;101017.03;5066447;28;20120;-75
2023/09/19 09:12:15;;;;;;;12.38;3.72;;;;;;;16.03;100.00;101015.00;5064356;28;20570;-75
2023/09/19 09:14:44;;;;;;;10.15;2.83;;;;;;;16.08;100.00;101008.59;5052175;28;20464;-75
2023/09/19 09:17:10;;;;;;;12.02;3.50;;;;;;;16.17;100.00;101014.41;5056786;28;20505;-75
2023/09/19 09:19:36;;;;;;;13.70;3.10;;;;;;;16.22;100.00;101010.66;5070822;28;20024;-75
2023/09/19 09:22:09;;;;;;;15.98;3.50;;;;;;;16.52;100.00;101018.09;5062923;28;20033;-76
2023/09/19 09:24:37;;;;;;;10.30;3.70;;;;;;;16.75;100.00;101011.81;5056702;28;20029;-75
2023/09/19 09:27:08;;;;;;;10.10;3.03;;;;;;;17.05;100.00;101022.66;5070264;28;20027;-75
2023/09/19 09:29:44;;;;;;;15.20;2.45;;;;;;;17.06;100.00;101027.84;5065629;28;20063;-75
2023/09/19 09:32:18;;;;;;;10.27;2.50;;;;;;;17.32;100.00;101025.75;5068365;28;20028;-75
2023/09/19 09:34:44;;;;;;;14.68;3.03;;;;;;;17.38;100.00;101021.97;5071580;28;20541;-75
2023/09/19 09:37:19;;;;;;;12.57;3.88;;;;;;;17.38;100.00;101016.69;5068952;28;20392;-75
2023/09/19 09:39:51;;;;;;;13.40;2.88;;;;;;;17.49;100.00;101004.72;5071047;28;20025;-75
2023/09/19 09:42:32;;;;;;;8.40;2.75;;;;;;;17.48;100.00;101002.97;5062210;28;20155;-74
2023/09/19 09:45:13;;;;;;;12.25;3.35;;;;;;;17.45;100.00;101010.19;5071087;28;20028;-74
2023/09/19 09:47:55;;;;;;;15.65;3.92;;;;;;;17.66;100.00;101000.38;5053885;28;20067;-74
2023/09/19 09:50:55;;;;;;;11.98;3.15;;;;;;;17.72;100.00;101000.03;5061355;28;20416;-75
2023/09/19 09:53:27;;;;;;;12.35;3.30;;;;;;;17.56;100.00;100984.16;5062294;28;20024;-74
2023/09/19 09:56:06;;;;;;;11.80;3.30;;;;;;;17.65;100.00;100996.88;5064813;28;20031;-74
2023/09/19 09:59:03;;;;;;;8.48;2.33;;;;;;;17.97;100.00;101000.53;5069857;28;20485;-74
2023/09/19 10:01:46;;;;;;;13.00;3.03;;;;;;;18.16;100.00;100999.59;5056551;28;20055;-74
2023/09/19 10:04:28;;;;;;;;;;;;;;;18.41;100.00;100999.09;5062462;28;20028;-74
2023/09/19 10:06:53;;;;;;;10.93;3.17;;;;;;;18.51;100.00;100996.81;5057359;28;19920;-75
2023/09/19 10:09:24;;;;;;;11.98;3.15;;;;;;;18.42;100.00;100996.41;5072543;28;20120;-74
2023/09/19 10:12:12;;;;;;;13.80;2.97;;;;;;;18.62;100.00;101002.41;5067028;28;20040;-74
2023/09/19 10:14:38;;;;;;;10.55;3.25;;;;;;;18.68;100.00;101005.56;5062587;28;20039;-74
2023/09/19 10:17:10;;;;;;;14.38;3.10;;;;;;;18.63;100.00;100993.53;5068346;28;20036;-74
2023/09/19 10:19:44;;;;;;;7.75;2.50;;;;;;;18.62;100.00;101012.97;5070315;28;20490;-74
2023/09/19 10:22:12;;;;;;;9.55;3.28;;;;;;;18.56;100.00;100986.88;5055059;28;20043;-74
2023/09/19 10:24:40;;;;;;;9.02;2.83;;;;;;;18.61;100.00;100980.44;5071403;28;20202;-74
2023/09/19 10:27:08;;;;;;;10.55;2.75;;;;;;;18.56;100.00;100986.88;5069130;28;20468;-74
2023/09/19 10:29:39;;;;;;;15.20;3.58;;;;;;;18.66;100.00;100988.09;5070071;28;20040;-74
2023/09/19 10:32:05;;;;;;;9.45;2.65;;;;;;;18.92;100.00;101005.16;5070633;28;20025;-74
2023/09/19 10:34:35;;;;;;;8.60;2.53;;;;;;;18.88;100.00;100988.63;5068287;28;20032;-74
2023/09/19 10:37:05;;;;;;;11.85;2.97;;;;;;;18.75;100.00;100986.75;5064961;28;20016;-74
2023/09/19 10:39:32;;;;;;;10.23;2.33;;;;;;;18.53;100.00;101002.88;5068035;28;20024;-74
2023/09/19 10:42:05;;;;;;;10.15;2.55;;;;;;;18.45;100.00;101004.16;5064772;28;20511;-74
2023/09/19 10:44:32;;;;;;;6.72;2.85;;;;;;;18.65;100.00;100991.66;5063175;28;20107;-74
2023/09/19 10:46:57;;;;;;;11.98;2.70;;;;;;;18.96;100.00;100975.00;5071958;28;20032;-74
2023/09/19 10:49:24;;;;;;;11.20;2.78;;;;;;;19.21;100.00;100984.19;5065529;28;20408;-74
2023/09/19 10:51:55;;;;;;;7.57;2.40;;;;;;;19.32;100.00;100982.59;5071609;28;20438;-74
2023/09/19 10:54:26;;;;;;;8.48;2.78;;;;;;;19.32;100.00;100976.47;5066932;28;20417;-74
2023/09/19 10:56:52;;;;;;;9.45;2.55;;;;;;;19.30;100.00;100981.84;5062491;28;20381;-74
2023/09/19 10:59:20;;;;;;;14.63;2.97;;;;;;;19.36;100.00;100978.88;5072064;28;20032;-74
2023/09/19 11:01:52;;;;;;;8.07;2.40;;;;;;;19.50;100.00;100982.50;5063081;28;20052;-74
2023/09/19 11:04:36;;;;;;;9.15;3.10;;;;;;;19.57;100.00;100982.03;5060299;28;20056;-75
2023/09/19 11:07:14;;;;;;;8.65;2.30;;;;;;;19.62;100.00;100964.13;5058620;28;20024;-75
2023/09/19 11:09:58;;;;;;;10.60;2.95;;;;;;;19.75;100.00;100956.34;5067166;28;20033;-75
2023/09/19 11:12:45;;;;;;;9.65;2.42;;;;;;;19.90;100.00;100951.06;5063158;28;20127;-75
2023/09/19 11:15:49;;;;;;;6.68;1.98;;;;;;;19.83;99.05;100948.78;5058377;28;20029;-75
2023/09/19 11:18:33;;;;;;;;;;;;;;;19.96;100.00;100956.81;5049540;28;20037;-75